Jack Mc Namara Field Airport
KCEC : now visible

Airfield :











YOU CAN JOIN US ON...

 
LOGIN :

Register | Disclaimer

   EN    FR    IT 

 









Legend :    VFR   Marginal VFR   IFR   Intensive IFR   Very Intensive IFR
Visi :
Ceiling :
>= 8 km
>= 3000ft
5 to 8 km
1000 to 3000 ft
1500m to 5 km
500 to 1000 ft
800 to 1500m
200 to 500 ft
< 800m
< 200 ft
Symbols :   Thunderstorms  Fog  Heavy snow  Heavy precipitations  Wind > 20 kt






- Airport Elevation : 61 ft
- IATA code : CEC


KCEC - Jack Mc Namara Field

CURRENT METAR :
  • 172256Z AUTO 35015G26KT 4SM HZ CLR 16/12 A2997 RMK AO2 PK WND 36027/2217 SLP148 T01560117

EXPIRED METARs :
  • 172210Z AUTO 35017G25KT 4SM HZ SCT007 16/12 A2998 RMK AO2 PK WND 34026/2159 T01560122
  • 172156Z AUTO 36016G25KT 4SM HZ BKN007 16/12 A2998 RMK AO2 PK WND 35026/2145 SLP154 T01610122
  • 172056Z AUTO 35013G24KT 4SM HZ BKN007 16/12 A3000 RMK AO2 PK WND 35026/2005 SLP160 T01610122 58015
  • 172042Z AUTO 35013G22KT 4SM HZ BKN007 16/13 A3001 RMK AO2 PK WND 35026/2005 T01610128

TAF KCEC
Valid from the 17 at 22:00 until the 18 at 18:00 UTC


172218Z 1722/1818 34017G25KT 4SM HZ BKN007
FM172300 24017G25KT 5SM HZ SCT007
FM180800 34006KT 6SM BR SCT010
FM181200 35005KT 5SM BR BKN010
KZSE FIR / North America



MET'MAP, your aeronautical weather chart ! - Copyright ORBIFLY December 2007 - Disclaimer

ORBIFLY MET'MAP TEAM :

Programming & Development : Alexandra Zaïnal
Concept & original design : Baudouin d'Aumeries
Assistance for programming : Marc-Olivier Méhu
Technical & hardware support : Manuel Goepfert

Contact : metmap@orbifly.com




SOURCES & CREDITS :

   NOAA       Earth
Advisory